Monday, November 20, 2017, 2:45 AM EST
Back to Local

KLEB, Lebanon Municipal Airport

Location: Lebanon, NH, United States Lat: 43.633
Local Time: 2:45 AM EST ( 7:45 GMT) Lon: -72.3
Time Zone: US/Eastern Elev: 597 ft

Show me the last for .
Show Decoded

2017-11-20 01:53 METAR KLEB 200653Z AUTO 00000KT 10SM OVC040 00/M06 A2966 RMK AO2 SLP048
                 T00001056 =
2017-11-20 00:53 METAR KLEB 200553Z AUTO 33004KT 10SM FEW036 00/M07 A2963 RMK AO2 SLP041
                 T00001067 10017 20000 51016 =
2017-11-19 23:53 METAR KLEB 200453Z AUTO 26004KT 10SM FEW045 01/M07 A2962 RMK AO2 SLP035
                 T00061072 401220006 =
2017-11-19 22:53 METAR KLEB 200353Z AUTO 27006G17KT 10SM SCT037 BKN048 01/M06 A2960 RMK AO2
                 SLP027 T00111061 =
2017-11-19 21:53 METAR KLEB 200253Z 28007KT 240V310 10SM BKN040 OVC048 02/M06 A2958 RMK AO2
                 SLP020 T00171061 53020 =
2017-11-19 20:53 METAR KLEB 200153Z 26011G17KT 10SM OVC046 02/M06 A2956 RMK AO2 SLP012 T00171056
                 =
2017-11-19 19:53 METAR KLEB 200053Z 24004KT 10SM OVC045 01/M06 A2955 RMK AO2 SLP008 T00061056 =
2017-11-19 18:53 METAR KLEB 192353Z 29008KT 10SM OVC032 01/M06 A2952 RMK AO2 SLP002 T00111056
                 10056 20011 51037 =
2017-11-19 17:53 METAR KLEB 192253Z 29010G21KT 10SM BKN030 OVC040 02/M05 A2950 RMK AO2 SLP993
                 T00171050 =
2017-11-19 16:53 METAR KLEB 192153Z 30010G20KT 10SM OVC034 02/M04 A2946 RMK AO2 PK WND 29026/2059
                 SLP982 T00221044 =
2017-11-19 15:53 METAR KLEB 192053Z 27013G20KT 10SM BKN032 03/M04 A2941 RMK AO2 SLP965 T00281044
                 53033 =
2017-11-19 14:53 METAR KLEB 191953Z 28012G21KT 10SM BKN032 03/M04 A2937 RMK AO2 SLP950 T00331039
                 =
2017-11-19 14:36 METAR KLEB 191936Z 29012G25KT 10SM BKN029 03/M04 A2936 RMK AO2 T00331039 =
2017-11-19 14:27 METAR KLEB 191927Z 28012G24KT 10SM SCT029 03/M03 A2935 RMK AO2 T00331033 =
2017-11-19 13:53 METAR KLEB 191853Z 28014G21KT 10SM BKN029 BKN035 OVC100 04/M02 A2932 RMK AO2 PK
                 WND 28029/1816 SLP932 T00441022 =
2017-11-19 13:50 METAR KLEB 191850Z 28012G17KT 10SM BKN029 BKN035 OVC100 04/M02 A2932 RMK AO2 PK
                 WND 28029/1816 =
2017-11-19 13:43 METAR KLEB 191843Z 28011KT 10SM BKN031 BKN035 OVC100 05/M02 A2931 RMK AO2 PK WND
                 28029/1816 T00501017 =
2017-11-19 12:53 METAR KLEB 191753Z 29008G21KT 10SM OVC027 06/M01 A2927 RMK AO2 SLP915 60007
                 T00561006 10122 20050 51044 =
2017-11-19 12:20 METAR KLEB 191720Z 29009G18KT 10SM OVC026 06/00 A2924 RMK AO2 T00560000 =
2017-11-19 11:53 METAR KLEB 191653Z 30007G21KT 260V340 10SM FEW022 BKN036 OVC046 06/01 A2923 RMK
                 AO2 PK WND 26026/1642 SLP901 T00610006 =
2017-11-19 10:53 METAR KLEB 191553Z 22013G18KT 10SM OVC022 09/05 A2914 RMK AO2 PK WND 23029/1528
                 RAE12 PRESRR SLP868 P0001 T00890050 =
2017-11-19 10:14 METAR KLEB 191514Z 26010G16KT 220V290 10SM FEW005 BKN023 OVC060 12/09 A2908 RMK
                 AO2 RAE12 P0001 T01170094 =
2017-11-19 10:03 METAR KLEB 191503Z 21010KT 9SM -RA SCT005 BKN050 OVC060 12/09 A2907 RMK AO2
                 P0001 T01170094 =
2017-11-19 09:53 METAR KLEB 191453Z 21012G19KT 4SM -RA BR BKN005 OVC055 12/10 A2906 RMK AO2 RAB31
                 CIG 001V011 SLP842 P0005 60006 T01170100 55018 =
2017-11-19 08:53 METAR KLEB 191353Z 20014KT 10SM OVC007 12/10 A2904 RMK AO2 RAB00E29 CIG 005V010
                 SLP836 P0000 T01170100 =
2017-11-19 07:53 METAR KLEB 191253Z VRB05KT 9SM OVC009 11/09 A2907 RMK AO2 RAE23 CIG 004V012
                 SLP844 P0001 T01060094 =
2017-11-19 06:53 METAR KLEB 191153Z 04004KT 5SM -RA BR OVC007 05/04 A2911 RMK AO2 RAB1055E07B38
                 CIG 005V010 SLP863 P0001 60015 70029 T00500044 10050 20022 56025 =
2017-11-19 05:53 METAR KLEB 191053Z AUTO 00000KT 5SM BR SCT004 OVC010 04/04 A2912 RMK AO2 PRESFR
                 SLP865 T00440044 =
2017-11-19 05:18 METAR KLEB 191018Z AUTO 00000KT 6SM BR FEW003 OVC010 04/04 A2914 RMK AO2
                 T00440039 =
2017-11-19 05:11 METAR KLEB 191011Z AUTO 00000KT 2 1/2SM BR FEW003 OVC010 04/04 A2915 RMK AO2
                 T00390039 =
2017-11-19 05:04 METAR KLEB 191004Z AUTO 07003KT 1/2SM FG SCT003 OVC010 04/03 A2915 RMK AO2
                 T00390033 =
2017-11-19 04:56 METAR KLEB 190956Z AUTO 02003KT 1 1/2SM BR FEW003 OVC010 04/04 A2916 RMK AO2
                 T00440039 =
2017-11-19 04:53 METAR KLEB 190953Z AUTO 00000KT 6SM BR FEW003 OVC010 04/04 A2917 RMK AO2 RAE05
                 CIG 007V013 SLP883 P0000 T00440039 =
2017-11-19 04:42 METAR KLEB 190942Z AUTO 00000KT 6SM BR SCT006 OVC011 04/03 A2917 RMK AO2 RAE05
                 P0000 T00390033 =
2017-11-19 04:25 METAR KLEB 190925Z AUTO 10003KT 5SM BR OVC009 04/03 A2917 RMK AO2 RAE05 PRESFR
                 P0000 T00390033 =
2017-11-19 04:16 METAR KLEB 190916Z AUTO 00000KT 3SM BR OVC010 03/03 A2919 RMK AO2 RAE05 P0000
                 T00330033 =
2017-11-19 04:01 METAR KLEB 190901Z AUTO 33003KT 1 1/2SM -RA BR OVC011 04/03 A2919 RMK AO2 P0000
                 T00390033 =
2017-11-19 03:53 METAR KLEB 190853Z AUTO 00000KT 6SM -RA BR SCT007 OVC011 03/03 A2919 RMK AO2
                 SLP890 P0002 60014 T00330028 58051 =
2017-11-19 03:25 METAR KLEB 190825Z AUTO 00000KT 4SM -RA BR OVC008 03/03 A2922 RMK AO2 CIG
                 005V012 P0001 T00280028 =
2017-11-19 02:53 METAR KLEB 190753Z AUTO 00000KT 5SM -RA BR OVC010 03/03 A2925 RMK AO2 SLP909
                 P0003 T00280028 =

Support USWX by starting your Amazon purchase here.